Time;durP1;ratioP1;P1;durP2;ratioP2;P2;SDS_P1;SDS_P2;PMS_P1;PMS_P2;Temp;Humidity;BMP_temperature;BMP_pressure;BME280_temperature;BME280_humidity;BME280_pressure;Samples;Min_cycle;Max_cycle;Signal;HPM_P1;HPM_P2
2022/05/22 00:01:49;;;;;;;13.00;7.40;;;10.00;99.90;;;;;;5025834;28;20319;-71
2022/05/22 00:04:15;;;;;;;10.00;7.03;;;10.00;99.90;;;;;;5043523;28;20128;-71
2022/05/22 00:06:40;;;;;;;13.15;8.73;;;9.90;99.90;;;;;;5010740;28;20151;-71
2022/05/22 00:09:06;;;;;;;12.35;7.68;;;9.90;99.90;;;;;;4994706;28;20373;-71
2022/05/22 00:11:32;;;;;;;12.07;7.82;;;9.90;99.90;;;;;;4994046;28;20045;-71
2022/05/22 00:13:58;;;;;;;12.35;7.78;;;9.90;99.90;;;;;;5010971;28;20076;-71
2022/05/22 00:16:36;;;;;;;10.55;7.13;;;9.90;99.90;;;;;;4993068;28;20072;-71
2022/05/22 00:19:15;;;;;;;11.30;6.72;;;9.90;99.90;;;;;;5012208;28;20053;-71
2022/05/22 00:21:41;;;;;;;12.85;7.10;;;9.90;99.90;;;;;;5025883;28;20072;-71
2022/05/22 00:24:08;;;;;;;12.32;7.00;;;9.80;99.90;;;;;;5023798;28;20041;-71
2022/05/22 00:26:34;;;;;;;10.18;6.35;;;9.80;99.90;;;;;;5026467;28;20742;-72
2022/05/22 00:29:00;;;;;;;9.90;7.03;;;9.80;99.90;;;;;;5024315;28;20045;-72
2022/05/22 00:31:26;;;;;;;7.63;6.50;;;9.70;99.90;;;;;;5026311;28;20049;-72
2022/05/22 00:33:52;;;;;;;9.15;6.63;;;9.80;99.90;;;;;;5026393;28;20057;-72
2022/05/22 00:36:18;;;;;;;11.48;7.50;;;9.70;99.90;;;;;;5010449;28;20046;-72
2022/05/22 00:38:44;;;;;;;9.85;7.13;;;9.70;99.90;;;;;;5009627;28;20514;-72
2022/05/22 00:41:12;;;;;;;10.95;6.85;;;9.70;99.90;;;;;;5027225;28;20042;-72
2022/05/22 00:43:49;;;;;;;11.20;7.00;;;9.70;99.90;;;;;;5024499;28;20033;-72
2022/05/22 00:46:18;;;;;;;11.65;8.25;;;9.70;99.90;;;;;;5011544;28;20049;-72
2022/05/22 00:48:53;;;;;;;18.35;10.07;;;9.60;99.90;;;;;;5026947;28;20057;-71
2022/05/22 00:51:32;;;;;;;11.27;7.28;;;9.60;99.90;;;;;;5026726;28;20081;-72
2022/05/22 00:54:02;;;;;;;20.63;12.43;;;9.50;99.90;;;;;;5027264;28;20052;-72
2022/05/22 00:56:36;;;;;;;11.18;8.27;;;9.50;99.90;;;;;;5020931;28;20084;-72
2022/05/22 00:59:07;;;;;;;8.57;6.75;;;9.40;99.90;;;;;;5026282;28;20053;-72
2022/05/22 01:01:34;;;;;;;10.35;7.90;;;9.40;99.90;;;;;;5022433;28;20450;-72
2022/05/22 01:04:01;;;;;;;13.23;8.52;;;9.40;99.90;;;;;;5007399;28;20495;-72
2022/05/22 01:06:27;;;;;;;12.55;7.88;;;9.40;99.90;;;;;;5035073;28;20049;-71
2022/05/22 01:08:53;;;;;;;14.68;9.25;;;9.40;99.90;;;;;;5007980;28;20277;-72
2022/05/22 01:11:23;;;;;;;13.63;9.93;;;9.50;99.90;;;;;;5026267;28;20044;-72
2022/05/22 01:13:54;;;;;;;13.90;10.35;;;9.40;99.90;;;;;;5024121;28;20045;-72
2022/05/22 01:16:20;;;;;;;15.13;10.52;;;9.40;99.90;;;;;;5006783;28;20057;-72
2022/05/22 01:18:48;;;;;;;21.25;11.43;;;9.30;99.90;;;;;;4992983;28;20569;-72
2022/05/22 01:21:17;;;;;;;12.63;8.48;;;9.30;99.90;;;;;;5009500;28;20450;-71
2022/05/22 01:23:46;;;;;;;12.88;8.10;;;9.20;99.90;;;;;;5023290;28;20080;-72
2022/05/22 01:26:12;;;;;;;11.70;9.15;;;9.10;99.90;;;;;;5026252;28;20120;-71
2022/05/22 01:28:38;;;;;;;11.02;8.27;;;9.10;99.90;;;;;;5025891;28;20045;-71
2022/05/22 01:31:07;;;;;;;12.02;9.07;;;9.10;99.90;;;;;;4993690;28;20399;-72
2022/05/22 01:33:34;;;;;;;12.38;9.15;;;9.10;99.90;;;;;;5025944;28;20041;-72
2022/05/22 01:36:01;;;;;;;10.60;8.50;;;9.10;99.90;;;;;;5025751;28;20068;-71
2022/05/22 01:38:31;;;;;;;14.45;8.00;;;9.10;99.90;;;;;;5026246;28;20128;-71
2022/05/22 01:40:57;;;;;;;15.35;10.63;;;9.10;99.90;;;;;;5008446;28;20487;-72
2022/05/22 01:43:23;;;;;;;10.25;7.38;;;9.10;99.90;;;;;;5023654;28;20048;-71
2022/05/22 01:45:49;;;;;;;15.15;8.30;;;9.10;99.90;;;;;;5019837;28;20052;-72
2022/05/22 01:48:15;;;;;;;9.98;7.25;;;9.00;99.90;;;;;;5025608;28;20038;-72
2022/05/22 01:50:46;;;;;;;10.02;7.68;;;9.00;99.90;;;;;;5025486;28;20049;-71
2022/05/22 01:53:12;;;;;;;11.13;7.85;;;9.00;99.90;;;;;;5025731;28;20128;-70
2022/05/22 01:55:38;;;;;;;9.18;7.00;;;9.00;99.90;;;;;;5007558;28;20045;-70
2022/05/22 01:58:07;;;;;;;9.23;7.10;;;9.00;99.90;;;;;;5025402;28;20683;-70
2022/05/22 02:00:34;;;;;;;13.52;8.63;;;9.10;99.90;;;;;;5023944;28;20077;-70
2022/05/22 02:03:01;;;;;;;14.68;8.70;;;9.10;99.90;;;;;;5033536;28;20053;-71
2022/05/22 02:05:26;;;;;;;12.27;8.65;;;9.10;99.90;;;;;;5005588;28;20041;-71
2022/05/22 02:10:38;;;;;;;12.63;10.10;;;9.00;99.90;;;;;;4999692;28;20093;-70
2022/05/22 02:13:04;;;;;;;13.05;9.05;;;9.00;99.90;;;;;;5000082;28;20476;-70
2022/05/22 02:15:30;;;;;;;12.88;9.73;;;9.00;99.90;;;;;;5014026;28;20099;-71
2022/05/22 02:17:57;;;;;;;13.68;9.85;;;9.00;99.90;;;;;;4991380;28;20057;-70
2022/05/22 02:20:23;;;;;;;11.18;8.90;;;9.00;99.90;;;;;;5006917;28;20058;-71
2022/05/22 02:22:53;;;;;;;12.43;9.02;;;9.00;99.90;;;;;;5018938;28;20042;-70
2022/05/22 02:25:22;;;;;;;10.85;8.18;;;9.00;99.90;;;;;;5007864;28;20097;-71
2022/05/22 02:27:48;;;;;;;8.87;7.63;;;9.00;99.90;;;;;;4990698;28;20159;-70
2022/05/22 02:30:18;;;;;;;11.13;8.82;;;9.00;99.90;;;;;;5021145;28;20060;-73
2022/05/22 02:32:44;;;;;;;14.13;9.63;;;9.00;99.90;;;;;;5010429;28;20045;-70
2022/05/22 02:35:12;;;;;;;13.05;9.75;;;9.00;99.90;;;;;;5026989;28;20056;-70
2022/05/22 02:37:49;;;;;;;9.57;7.90;;;9.00;99.90;;;;;;5026545;28;20499;-70
2022/05/22 02:40:17;;;;;;;10.50;9.40;;;8.90;99.90;;;;;;5010143;28;20053;-70
2022/05/22 02:42:49;;;;;;;10.50;9.40;;;8.90;99.90;;;;;;5026671;28;20093;-71
2022/05/22 02:45:20;;;;;;;11.30;8.20;;;8.90;99.90;;;;;;5025409;28;20396;-70
2022/05/22 02:47:47;;;;;;;15.15;9.85;;;8.90;99.90;;;;;;5011055;28;20058;-71
2022/05/22 02:50:15;;;;;;;18.10;10.70;;;8.80;99.90;;;;;;5026981;28;20162;-70
2022/05/22 02:52:41;;;;;;;13.40;9.50;;;8.70;99.90;;;;;;5017100;28;20492;-73
2022/05/22 02:55:08;;;;;;;14.70;11.27;;;8.70;99.90;;;;;;4996557;28;20045;-71
2022/05/22 02:57:35;;;;;;;11.30;8.15;;;8.70;99.90;;;;;;5011733;28;20254;-70
2022/05/22 03:00:03;;;;;;;21.50;11.88;;;8.70;99.90;;;;;;5029727;28;20052;-70
2022/05/22 03:02:29;;;;;;;10.40;9.30;;;8.70;99.90;;;;;;5009515;28;20037;-72
2022/05/22 03:04:54;;;;;;;16.42;10.52;;;8.60;99.90;;;;;;5028834;28;20073;-71
2022/05/22 03:07:20;;;;;;;12.93;9.52;;;8.60;99.90;;;;;;5030357;28;20104;-70
2022/05/22 03:09:47;;;;;;;18.92;10.45;;;8.60;99.90;;;;;;5030056;28;20053;-70
2022/05/22 03:12:17;;;;;;;10.23;9.25;;;8.60;99.90;;;;;;5029803;28;20135;-70
2022/05/22 03:14:57;;;;;;;12.95;9.18;;;8.50;99.90;;;;;;5013416;28;20069;-70
2022/05/22 03:17:24;;;;;;;14.85;9.63;;;8.50;99.90;;;;;;5010313;28;20057;-71
2022/05/22 03:19:50;;;;;;;13.02;9.13;;;8.50;99.90;;;;;;4993946;28;20084;-70
2022/05/22 03:22:16;;;;;;;14.00;9.70;;;8.50;99.90;;;;;;5012935;28;20052;-70
2022/05/22 03:24:42;;;;;;;14.88;9.85;;;8.50;99.90;;;;;;5013903;28;20059;-70
2022/05/22 03:27:12;;;;;;;14.45;9.80;;;8.50;99.90;;;;;;5025967;28;20042;-70
2022/05/22 03:29:39;;;;;;;13.77;9.48;;;8.50;99.90;;;;;;5016972;28;20541;-70
2022/05/22 03:32:06;;;;;;;13.25;9.93;;;8.50;99.90;;;;;;5029317;28;20045;-70
2022/05/22 03:34:32;;;;;;;11.30;9.98;;;8.50;99.90;;;;;;5030100;28;20421;-71
2022/05/22 03:36:58;;;;;;;13.05;8.82;;;8.40;99.90;;;;;;5013446;28;20049;-70
2022/05/22 03:39:24;;;;;;;17.02;12.57;;;8.60;99.90;;;;;;5030083;28;20064;-71
2022/05/22 03:41:50;;;;;;;16.83;11.60;;;8.40;99.90;;;;;;5013046;28;20048;-71
2022/05/22 03:44:16;;;;;;;13.82;10.27;;;8.40;99.90;;;;;;5029973;28;20053;-71
2022/05/22 03:46:45;;;;;;;12.27;9.20;;;8.40;99.90;;;;;;5015345;28;20050;-71
2022/05/22 03:49:12;;;;;;;13.35;9.18;;;8.40;99.90;;;;;;5026618;28;20103;-71
2022/05/22 03:51:39;;;;;;;18.27;11.73;;;8.40;99.90;;;;;;5026156;28;20042;-72
2022/05/22 03:54:05;;;;;;;12.90;9.43;;;8.40;99.90;;;;;;5009681;28;20049;-72
2022/05/22 03:56:31;;;;;;;12.93;9.45;;;8.40;99.90;;;;;;5025836;28;20054;-71
2022/05/22 03:58:57;;;;;;;11.63;10.15;;;8.40;99.90;;;;;;4993151;28;20382;-71
2022/05/22 04:01:23;;;;;;;11.75;9.38;;;8.50;99.90;;;;;;5015521;28;20038;-71
2022/05/22 04:03:49;;;;;;;13.43;9.98;;;8.50;99.90;;;;;;5021413;28;20065;-71
2022/05/22 04:06:14;;;;;;;10.63;8.82;;;8.50;99.90;;;;;;5012361;28;20091;-70
2022/05/22 04:08:40;;;;;;;12.32;8.98;;;8.50;99.90;;;;;;5012856;28;20089;-70
2022/05/22 04:11:13;;;;;;;10.88;8.95;;;8.50;99.90;;;;;;5012552;28;20038;-70
2022/05/22 04:13:40;;;;;;;11.93;8.20;;;8.50;99.90;;;;;;5029393;28;20122;-70
2022/05/22 04:16:06;;;;;;;10.98;8.50;;;8.50;99.90;;;;;;5003086;28;20135;-71
2022/05/22 04:18:33;;;;;;;10.15;7.95;;;8.50;99.90;;;;;;4992412;28;20280;-70
2022/05/22 04:20:59;;;;;;;9.93;7.95;;;8.60;99.90;;;;;;5025398;28;20096;-72
2022/05/22 04:26:11;;;;;;;13.55;10.02;;;8.60;99.90;;;;;;5009472;28;20571;-71
2022/05/22 04:28:37;;;;;;;13.57;10.45;;;8.70;99.90;;;;;;4992758;28;20574;-71
2022/05/22 04:31:03;;;;;;;14.88;12.05;;;8.70;99.90;;;;;;5008815;28;20058;-72
2022/05/22 04:33:31;;;;;;;21.23;13.50;;;8.70;99.90;;;;;;5008921;28;20483;-71
2022/05/22 04:35:57;;;;;;;21.50;14.75;;;8.60;99.90;;;;;;5030980;28;20056;-71
2022/05/22 04:38:23;;;;;;;23.38;15.38;;;8.60;99.90;;;;;;5028096;28;20111;-70
2022/05/22 04:41:00;;;;;;;25.38;16.40;;;8.60;99.90;;;;;;5027949;28;20495;-70
2022/05/22 04:43:27;;;;;;;11.65;10.48;;;8.60;99.90;;;;;;5026504;28;20045;-71
2022/05/22 04:45:54;;;;;;;19.20;13.30;;;8.60;99.90;;;;;;5006025;28;20442;-70
2022/05/22 04:48:21;;;;;;;13.13;10.40;;;8.60;99.90;;;;;;5008713;28;20519;-70
2022/05/22 04:50:49;;;;;;;11.25;9.85;;;8.50;99.90;;;;;;5003652;28;20045;-71
2022/05/22 04:53:16;;;;;;;10.52;9.52;;;8.70;99.90;;;;;;5012058;28;20132;-70
2022/05/22 04:55:42;;;;;;;10.82;9.75;;;8.70;99.90;;;;;;5012122;28;20049;-70
2022/05/22 04:58:08;;;;;;;12.48;9.93;;;8.80;99.90;;;;;;5028273;28;20492;-70
2022/05/22 05:00:34;;;;;;;12.88;10.35;;;8.90;99.90;;;;;;5023342;28;20045;-70
2022/05/22 05:03:00;;;;;;;11.77;9.77;;;9.00;99.90;;;;;;4991788;28;20446;-71
2022/05/22 05:05:28;;;;;;;13.75;10.90;;;9.10;99.90;;;;;;5011699;28;20514;-71
2022/05/22 05:07:54;;;;;;;15.65;11.63;;;9.10;99.90;;;;;;5027871;28;20053;-71
2022/05/22 05:10:20;;;;;;;14.90;12.98;;;9.20;99.90;;;;;;5028241;28;20513;-71
2022/05/22 05:12:46;;;;;;;15.45;12.43;;;9.30;99.90;;;;;;5011696;28;20415;-71
2022/05/22 05:15:14;;;;;;;13.77;11.75;;;9.40;99.90;;;;;;5016812;28;20056;-71
2022/05/22 05:17:41;;;;;;;16.27;12.68;;;9.50;99.90;;;;;;5007778;28;20333;-71
2022/05/22 05:20:08;;;;;;;16.05;12.75;;;9.60;99.90;;;;;;5008327;28;20054;-70
2022/05/22 05:22:34;;;;;;;24.58;16.60;;;9.70;99.90;;;;;;4989946;28;20205;-71
2022/05/22 05:25:00;;;;;;;17.13;14.48;;;9.80;99.90;;;;;;4991662;28;20050;-71
2022/05/22 05:27:26;;;;;;;19.70;14.50;;;9.90;99.90;;;;;;4991169;28;20411;-71
2022/05/22 05:29:52;;;;;;;18.00;14.57;;;10.00;99.90;;;;;;5007982;28;20057;-71
2022/05/22 05:32:18;;;;;;;24.90;15.82;;;10.00;99.90;;;;;;5007456;28;20053;-71
2022/05/22 05:34:44;;;;;;;21.50;16.15;;;10.20;99.90;;;;;;5007632;28;20041;-71
2022/05/22 05:37:10;;;;;;;20.08;15.55;;;10.30;99.90;;;;;;5006900;28;20049;-71
2022/05/22 05:39:36;;;;;;;21.67;14.40;;;10.40;99.90;;;;;;5011124;28;20059;-71
2022/05/22 05:42:02;;;;;;;19.45;15.30;;;10.60;99.90;;;;;;5010835;28;20041;-71
2022/05/22 05:44:27;;;;;;;25.58;16.27;;;10.70;99.90;;;;;;4994303;28;20841;-71
2022/05/22 05:46:53;;;;;;;19.38;15.27;;;10.70;99.90;;;;;;5006384;28;20053;-71
2022/05/22 05:49:19;;;;;;;18.77;14.55;;;10.80;99.90;;;;;;5009533;28;20522;-71
2022/05/22 05:51:45;;;;;;;21.23;14.15;;;10.90;99.90;;;;;;5026869;28;20047;-71
2022/05/22 05:54:11;;;;;;;15.88;14.18;;;11.00;99.90;;;;;;5027623;28;20046;-71
2022/05/22 05:56:38;;;;;;;21.08;14.48;;;11.10;99.90;;;;;;5026860;28;20116;-71
2022/05/22 05:59:05;;;;;;;17.42;13.43;;;11.20;99.90;;;;;;5011152;28;20045;-71
2022/05/22 06:01:31;;;;;;;22.17;14.32;;;11.20;99.90;;;;;;5026641;28;20081;-71
2022/05/22 06:03:56;;;;;;;21.55;13.57;;;11.30;99.90;;;;;;5015887;28;20108;-71
2022/05/22 06:06:22;;;;;;;20.85;13.75;;;11.40;99.90;;;;;;4992192;28;20045;-71
2022/05/22 06:08:49;;;;;;;20.10;13.20;;;11.40;99.90;;;;;;5019614;28;20061;-72
2022/05/22 06:11:15;;;;;;;21.08;13.85;;;11.50;99.90;;;;;;5007091;28;20037;-71
2022/05/22 06:13:41;;;;;;;23.55;14.23;;;11.60;99.90;;;;;;5014974;28;20484;-72
2022/05/22 06:16:08;;;;;;;17.95;12.18;;;11.70;99.90;;;;;;4987110;28;20033;-72
2022/05/22 06:18:34;;;;;;;18.63;11.40;;;11.80;99.90;;;;;;5013298;28;20623;-70
2022/05/22 06:21:08;;;;;;;17.85;11.77;;;11.90;99.90;;;;;;5006443;28;20311;-71
2022/05/22 06:23:34;;;;;;;19.02;10.20;;;12.00;99.90;;;;;;5024726;28;20045;-70
2022/05/22 06:26:00;;;;;;;20.33;10.82;;;12.10;99.90;;;;;;4994087;28;20060;-71
2022/05/22 06:28:25;;;;;;;21.73;11.50;;;12.20;99.90;;;;;;5025900;28;20049;-71
2022/05/22 06:30:52;;;;;;;19.05;9.98;;;12.20;99.90;;;;;;5010429;28;20569;-71
2022/05/22 06:33:17;;;;;;;18.83;9.40;;;12.40;99.90;;;;;;5010992;28;20079;-71
2022/05/22 06:35:46;;;;;;;19.63;8.98;;;12.50;99.90;;;;;;5012674;28;20041;-71
2022/05/22 06:39:49;;;;;;;15.45;8.15;;;12.60;99.90;;;;;;4996843;28;20132;-71
2022/05/22 06:40:58;;;;;;;12.07;8.48;;;12.70;99.90;;;;;;5029191;28;20045;-71
2022/05/22 06:43:24;;;;;;;17.38;8.60;;;12.70;99.90;;;;;;5028643;28;21556;-72
2022/05/22 06:45:51;;;;;;;14.88;8.75;;;12.80;99.90;;;;;;5027745;28;20041;-71
2022/05/22 06:48:17;;;;;;;15.43;8.63;;;13.00;99.90;;;;;;5029769;28;20045;-71
2022/05/22 06:50:44;;;;;;;16.33;9.00;;;13.00;99.90;;;;;;5027637;28;20117;-71
2022/05/22 06:53:10;;;;;;;17.48;8.60;;;13.10;99.90;;;;;;4996392;28;20128;-71
2022/05/22 06:55:35;;;;;;;17.80;8.38;;;13.30;99.90;;;;;;4995171;28;20128;-70
2022/05/22 06:58:01;;;;;;;16.90;8.90;;;13.40;99.90;;;;;;5012603;28;20518;-70
2022/05/22 07:00:27;;;;;;;19.35;8.23;;;13.50;99.90;;;;;;5012781;28;20358;-71
2022/05/22 07:02:54;;;;;;;17.05;7.30;;;13.60;99.90;;;;;;5011398;28;20088;-72
2022/05/22 07:05:20;;;;;;;15.55;6.72;;;13.70;99.90;;;;;;5012192;28;20056;-72
2022/05/22 07:07:47;;;;;;;14.48;7.43;;;13.80;99.90;;;;;;5025388;28;20528;-71
2022/05/22 07:10:13;;;;;;;15.00;6.70;;;13.90;99.90;;;;;;5012759;28;20047;-71
2022/05/22 07:12:39;;;;;;;15.63;6.75;;;14.00;99.90;;;;;;5012050;28;20413;-71
2022/05/22 07:15:07;;;;;;;14.88;6.50;;;14.20;99.90;;;;;;5012300;28;20037;-71
2022/05/22 07:17:33;;;;;;;15.10;6.63;;;14.30;99.90;;;;;;5011345;28;20403;-71
2022/05/22 07:19:59;;;;;;;13.35;5.85;;;14.40;99.90;;;;;;5012024;28;20049;-71
2022/05/22 07:22:25;;;;;;;11.50;5.80;;;14.50;99.90;;;;;;5011284;28;20423;-72
2022/05/22 07:24:52;;;;;;;15.02;5.78;;;14.60;99.90;;;;;;4992766;28;20049;-72
2022/05/22 07:27:19;;;;;;;11.82;5.78;;;14.70;99.90;;;;;;5026264;28;20076;-73
2022/05/22 07:29:45;;;;;;;13.23;6.20;;;14.80;99.90;;;;;;5028026;28;20045;-72
2022/05/22 07:32:11;;;;;;;12.57;5.82;;;14.90;99.90;;;;;;5011670;28;20052;-72
2022/05/22 07:34:38;;;;;;;12.88;6.13;;;15.00;99.90;;;;;;4994964;28;20100;-72
2022/05/22 07:37:07;;;;;;;12.65;5.47;;;15.10;99.90;;;;;;5028183;28;20045;-72
2022/05/22 07:39:34;;;;;;;11.55;4.25;;;15.30;99.90;;;;;;5011198;28;20072;-72
2022/05/22 07:42:00;;;;;;;11.35;4.57;;;15.40;99.90;;;;;;4995041;28;20538;-72
2022/05/22 07:44:26;;;;;;;11.15;4.85;;;15.50;99.90;;;;;;5027666;28;20056;-72
2022/05/22 07:46:52;;;;;;;12.38;4.47;;;15.60;99.90;;;;;;4995110;28;20045;-73
2022/05/22 07:52:05;;;;;;;9.82;3.33;;;15.80;99.90;;;;;;5027402;28;20050;-71
2022/05/22 07:54:40;;;;;;;9.07;3.00;;;15.90;99.90;;;;;;5010954;28;20111;-71
2022/05/22 07:57:07;;;;;;;10.85;3.08;;;16.10;99.90;;;;;;5011706;28;20369;-71
2022/05/22 07:59:37;;;;;;;10.30;3.13;;;16.20;99.90;;;;;;5010313;28;20053;-71
2022/05/22 08:02:03;;;;;;;;;;;16.30;99.90;;;;;;5020041;28;20042;-71
2022/05/22 08:04:30;;;;;;;6.32;2.55;;;16.30;99.90;;;;;;5038208;28;19929;-71
2022/05/22 08:06:56;;;;;;;8.93;2.97;;;16.40;99.90;;;;;;5035187;28;20435;-72
2022/05/22 08:09:22;;;;;;;10.40;2.78;;;16.50;99.90;;;;;;5007326;28;20553;-71
2022/05/22 08:11:48;;;;;;;9.70;3.10;;;16.70;99.90;;;;;;5004720;28;20049;-71
2022/05/22 08:14:15;;;;;;;7.75;2.75;;;16.90;99.90;;;;;;5009378;28;20038;-72
2022/05/22 08:16:42;;;;;;;9.60;3.55;;;17.10;99.90;;;;;;5016267;28;20045;-71
2022/05/22 08:19:09;;;;;;;6.63;2.63;;;17.20;99.90;;;;;;5041380;28;20139;-71
2022/05/22 08:21:34;;;;;;;8.38;2.50;;;17.30;99.90;;;;;;5038879;28;20045;-71
2022/05/22 08:24:00;;;;;;;6.43;2.15;;;17.40;99.90;;;;;;5027743;28;20041;-71
2022/05/22 08:26:27;;;;;;;7.97;2.40;;;17.50;99.90;;;;;;5027589;28;20053;-71
2022/05/22 08:28:53;;;;;;;8.40;2.38;;;17.50;99.90;;;;;;5027738;28;20447;-71
2022/05/22 08:31:19;;;;;;;7.80;2.33;;;17.50;99.90;;;;;;5027720;28;20334;-71
2022/05/22 08:33:45;;;;;;;9.15;2.47;;;17.50;99.90;;;;;;5010498;28;20656;-71
2022/05/22 08:36:10;;;;;;;7.95;1.95;;;17.60;99.90;;;;;;5026228;28;20045;-71
2022/05/22 08:38:36;;;;;;;8.63;2.17;;;17.80;99.90;;;;;;5011020;28;20046;-71
2022/05/22 08:41:20;;;;;;;10.73;2.00;;;17.80;99.90;;;;;;5024023;28;20484;-71
2022/05/22 08:44:22;;;;;;;7.15;1.73;;;17.90;99.90;;;;;;5008242;28;20045;-71
2022/05/22 08:47:32;;;;;;;8.10;2.20;;;18.10;99.90;;;;;;5004644;28;20071;-71
2022/05/22 08:50:03;;;;;;;7.10;1.80;;;18.10;99.90;;;;;;4989809;28;20061;-71
2022/05/22 08:52:43;;;;;;;6.78;1.90;;;18.10;99.90;;;;;;5010911;28;20099;-71
2022/05/22 08:55:19;;;;;;;9.05;1.73;;;18.30;99.90;;;;;;5010676;28;20507;-71
2022/05/22 09:00:38;;;;;;;8.70;1.70;;;18.10;99.90;;;;;;5021376;28;20085;-71
2022/05/22 09:03:24;;;;;;;5.40;1.77;;;18.10;99.90;;;;;;4992621;28;20526;-71
2022/05/22 09:05:55;;;;;;;7.53;2.10;;;18.10;99.90;;;;;;5023238;28;20045;-71
2022/05/22 09:08:26;;;;;;;;;;;18.30;99.90;;;;;;5014063;28;20050;-71
2022/05/22 09:11:26;;;;;;;9.18;2.45;;;18.40;99.90;;;;;;5018042;28;19921;-71
2022/05/22 09:14:15;;;;;;;8.25;2.50;;;18.70;99.90;;;;;;5035404;28;20042;-71
2022/05/22 09:16:52;;;;;;;8.77;2.60;;;18.90;99.90;;;;;;5002714;28;20076;-71
2022/05/22 09:19:26;;;;;;;9.25;2.30;;;19.00;99.90;;;;;;5033426;28;20095;-72
2022/05/22 09:21:58;;;;;;;9.50;1.73;;;19.10;99.90;;;;;;5014701;28;20089;-71
2022/05/22 09:25:08;;;;;;;10.15;2.50;;;19.30;99.90;;;;;;5008308;28;20038;-71
2022/05/22 09:27:34;;;;;;;;;;;19.50;99.90;;;;;;5009032;28;20049;-71
2022/05/22 09:30:06;;;;;;;7.82;2.00;;;19.40;99.90;;;;;;5042667;28;19931;-71
2022/05/22 09:32:41;;;;;;;11.63;2.40;;;19.50;99.90;;;;;;5023330;28;20042;-71
2022/05/22 09:35:37;;;;;;;6.40;2.17;;;19.60;99.90;;;;;;5023105;28;20037;-71
2022/05/22 09:38:22;;;;;;;11.65;2.50;;;19.60;99.90;;;;;;4991366;28;20152;-71
2022/05/22 09:40:50;;;;;;;8.55;1.80;;;19.50;99.90;;;;;;5025641;28;20041;-71
2022/05/22 09:43:22;;;;;;;8.30;2.28;;;19.30;99.90;;;;;;5024786;28;20546;-72
2022/05/22 09:45:57;;;;;;;6.22;2.17;;;19.10;99.90;;;;;;5021045;28;20502;-71
2022/05/22 09:48:57;;;;;;;6.72;1.70;;;18.80;99.90;;;;;;5022412;28;20129;-71
2022/05/22 09:51:47;;;;;;;7.15;1.83;;;18.60;99.90;;;;;;5001795;28;20128;-71
2022/05/22 09:54:22;;;;;;;7.85;1.95;;;18.30;99.90;;;;;;5021547;28;20059;-71
2022/05/22 09:57:13;;;;;;;7.15;1.88;;;18.10;99.90;;;;;;5008701;28;20567;-71
2022/05/22 09:59:51;;;;;;;5.90;1.77;;;18.20;99.90;;;;;;5024651;28;20037;-72
2022/05/22 10:02:33;;;;;;;8.05;1.92;;;18.60;99.90;;;;;;5038477;28;20556;-71
2022/05/22 10:04:59;;;;;;;5.72;2.05;;;18.80;99.90;;;;;;5008258;28;20093;-71
2022/05/22 10:07:49;;;;;;;4.95;1.25;;;18.90;99.90;;;;;;5010158;28;20725;-71
2022/05/22 10:10:27;;;;;;;8.13;2.05;;;19.00;99.90;;;;;;4995822;28;20123;-72
2022/05/22 10:13:04;;;;;;;7.03;1.70;;;19.10;99.90;;;;;;5009252;28;20064;-71
2022/05/22 10:15:37;;;;;;;7.43;1.75;;;19.30;99.90;;;;;;5025616;28;20046;-71
2022/05/22 10:18:02;;;;;;;7.90;1.90;;;19.60;99.90;;;;;;5023460;28;20060;-71
2022/05/22 10:20:43;;;;;;;5.93;1.70;;;19.80;99.70;;;;;;5025485;28;20136;-72
2022/05/22 10:23:23;;;;;;;5.05;1.20;;;19.90;99.90;;;;;;5024327;28;20150;-71
2022/05/22 10:26:07;;;;;;;5.85;1.50;;;19.80;95.50;;;;;;5004947;28;20061;-71
2022/05/22 10:28:37;;;;;;;3.60;1.15;;;19.60;97.40;;;;;;5021673;28;20072;-72
2022/05/22 10:31:06;;;;;;;6.53;1.30;;;19.50;97.80;;;;;;5017845;28;21107;-72
2022/05/22 10:33:45;;;;;;;5.78;1.83;;;19.40;98.50;;;;;;5018852;28;20057;-71
2022/05/22 10:36:24;;;;;;;6.30;1.45;;;19.30;98.70;;;;;;5000892;28;20045;-72
2022/05/22 10:38:58;;;;;;;4.65;1.20;;;19.30;97.20;;;;;;5004067;28;20041;-71
2022/05/22 10:44:19;;;;;;;5.90;1.58;;;19.10;98.90;;;;;;5022833;28;20088;-72
2022/05/22 10:46:53;;;;;;;8.23;1.50;;;19.40;99.90;;;;;;5006109;28;20049;-71
2022/05/22 10:49:24;;;;;;;5.53;1.20;;;19.60;95.80;;;;;;5018242;28;20631;-71
2022/05/22 10:52:02;;;;;;;6.63;1.38;;;19.70;95.90;;;;;;5016116;28;20100;-73
2022/05/22 10:54:54;;;;;;;6.55;1.35;;;19.70;95.80;;;;;;5035226;28;20500;-72
2022/05/22 10:57:29;;;;;;;5.10;1.38;;;19.60;96.20;;;;;;5010998;28;20604;-72
2022/05/22 10:59:56;;;;;;;5.28;1.35;;;19.50;96.50;;;;;;5020311;28;20071;-72
2022/05/22 11:02:28;;;;;;;6.68;1.40;;;19.50;97.10;;;;;;5018593;28;20124;-71
2022/05/22 11:04:56;;;;;;;5.95;1.50;;;19.50;99.40;;;;;;5003348;28;20053;-72
2022/05/22 11:07:45;;;;;;;5.18;1.33;;;19.70;98.60;;;;;;5006255;28;20052;-71
2022/05/22 11:10:17;;;;;;;5.85;1.38;;;19.70;97.00;;;;;;5027508;28;20045;-72
2022/05/22 11:12:43;;;;;;;7.10;1.65;;;19.50;95.40;;;;;;5011398;28;20045;-72
2022/05/22 11:15:14;;;;;;;7.10;1.40;;;19.30;98.20;;;;;;5027328;28;20535;-72
2022/05/22 11:17:39;;;;;;;;;;;19.30;98.80;;;;;;5024222;28;20048;-72
2022/05/22 11:20:17;;;;;;;5.13;1.05;;;19.20;97.30;;;;;;5028423;28;19925;-71
2022/05/22 11:23:27;;;;;;;8.07;1.40;;;19.20;99.00;;;;;;5011712;28;20044;-71
2022/05/22 11:26:21;;;;;;;5.70;1.45;;;19.10;94.90;;;;;;4999893;28;20056;-71
2022/05/22 11:29:09;;;;;;;4.22;1.30;;;19.00;98.20;;;;;;5010830;28;20384;-71
2022/05/22 11:31:49;;;;;;;7.88;1.98;;;19.00;97.10;;;;;;5028207;28;20094;-71
2022/05/22 11:34:27;;;;;;;4.50;1.40;;;19.10;97.30;;;;;;5028169;28;20091;-71
2022/05/22 11:37:07;;;;;;;5.00;1.67;;;19.40;97.90;;;;;;5010105;28;20507;-71
2022/05/22 11:39:40;;;;;;;7.10;1.38;;;19.70;94.30;;;;;;5028277;28;20637;-72
2022/05/22 11:42:24;;;;;;;6.30;1.48;;;19.90;95.40;;;;;;5025175;28;20056;-72
2022/05/22 11:45:16;;;;;;;5.15;1.60;;;20.20;97.50;;;;;;5028164;28;20053;-71
2022/05/22 11:47:55;;;;;;;4.90;1.30;;;20.60;99.00;;;;;;5027900;28;20050;-71
2022/05/22 11:50:46;;;;;;;6.15;1.67;;;20.90;95.30;;;;;;5027917;28;20045;-71
2022/05/22 11:53:12;;;;;;;6.22;1.90;;;21.00;93.90;;;;;;5009986;28;20124;-71
2022/05/22 11:55:50;;;;;;;8.23;1.65;;;20.80;94.60;;;;;;5018973;28;20120;-71
2022/05/22 11:58:34;;;;;;;5.63;1.40;;;20.60;93.40;;;;;;5011281;28;20128;-71
2022/05/22 12:01:26;;;;;;;4.20;1.38;;;20.30;92.90;;;;;;5028252;28;20631;-71
2022/05/22 12:03:58;;;;;;;6.78;1.52;;;20.10;94.90;;;;;;5008618;28;20048;-71
2022/05/22 12:06:39;;;;;;;7.85;1.70;;;20.00;94.60;;;;;;5018216;28;20038;-71
2022/05/22 12:09:07;;;;;;;7.05;1.50;;;19.80;94.60;;;;;;5038395;28;20041;-72
2022/05/22 12:11:38;;;;;;;6.45;1.40;;;19.70;95.00;;;;;;5019092;28;20085;-72
2022/05/22 12:14:06;;;;;;;4.40;1.73;;;19.60;94.20;;;;;;5023955;28;20049;-71
2022/05/22 12:16:43;;;;;;;4.72;1.10;;;19.50;95.20;;;;;;5015241;28;20055;-72
2022/05/22 12:19:18;;;;;;;5.25;1.20;;;19.40;94.30;;;;;;5017947;28;20515;-72
2022/05/22 12:23:07;;;;;;;4.72;1.20;;;19.40;95.30;;;;;;5026728;28;20034;-71
2022/05/22 12:25:20;;;;;;;5.53;1.20;;;19.40;96.20;;;;;;5026819;28;20253;-72
2022/05/22 12:27:47;;;;;;;3.95;1.20;;;19.30;97.00;;;;;;5026797;28;20111;-72
2022/05/22 12:30:31;;;;;;;4.25;1.30;;;19.30;96.70;;;;;;5011036;28;20038;-71
2022/05/22 12:33:00;;;;;;;7.32;1.80;;;19.30;95.60;;;;;;5026736;28;20041;-72
2022/05/22 12:35:26;;;;;;;6.88;1.52;;;19.20;97.80;;;;;;5023674;28;20048;-71
2022/05/22 12:38:00;;;;;;;6.57;1.75;;;19.30;99.00;;;;;;5026522;28;20046;-71
2022/05/22 12:40:44;;;;;;;4.57;1.10;;;19.30;98.80;;;;;;5010333;28;20053;-71
2022/05/22 12:43:13;;;;;;;5.85;1.10;;;19.30;98.70;;;;;;5026909;28;20044;-71
2022/05/22 12:45:40;;;;;;;4.82;1.30;;;19.30;98.90;;;;;;5010347;28;20053;-71
2022/05/22 12:48:32;;;;;;;9.73;1.35;;;19.30;98.50;;;;;;5026832;28;20041;-71
2022/05/22 12:51:16;;;;;;;4.88;1.17;;;19.30;96.20;;;;;;5021306;28;20054;-71
2022/05/22 12:53:51;;;;;;;4.40;1.13;;;19.40;98.90;;;;;;5009415;28;20045;-71
2022/05/22 12:56:19;;;;;;;5.05;1.38;;;19.40;98.90;;;;;;5026436;28;20033;-72
2022/05/22 12:58:54;;;;;;;3.75;1.15;;;19.40;98.30;;;;;;5002690;28;20045;-72
2022/05/22 13:01:39;;;;;;;6.28;1.42;;;19.40;98.70;;;;;;5008041;28;20034;-71
2022/05/22 13:04:25;;;;;;;5.75;1.30;;;19.40;99.40;;;;;;4999892;28;20080;-72
2022/05/22 13:07:13;;;;;;;6.18;1.40;;;19.40;99.90;;;;;;5016156;28;20063;-71
2022/05/22 13:09:51;;;;;;;7.55;1.30;;;19.50;99.90;;;;;;5028134;28;20041;-72
2022/05/22 13:12:16;;;;;;;4.85;1.15;;;19.50;99.90;;;;;;5008585;28;20052;-71
2022/05/22 13:14:54;;;;;;;5.05;1.27;;;19.50;99.90;;;;;;5021562;28;20408;-73
2022/05/22 13:17:41;;;;;;;3.92;1.35;;;19.50;99.90;;;;;;5008756;28;20499;-71